Accueil
METAR-TAF:

METAR-TAF

Aéroports :

Rarotonga, Îles Cook

Aéroport international de Rarotonga

latitude: 21-12S, longitude: 159-49W, altitude: 7 m

Observation

Le bulletin a été fait il y a 53 minutes, à 03:00 UTC
Vent 5 kt de sud-est
Température 24°C
Humidité 69%
Pression 1016 hPa
Visibilité 10 km ou plus
Quelques nuages à une hauteur de 2500 ft

METAR: NCRG 240300Z 14005KT 9999 FEW025 24/18 Q1016

Heure: 17:53 (03:53 UTC)

Prévision

Le bulletin a été fait il y a 4 heures et 53 minutes, à 23:00 UTC
Prévision valable du 24 à 00 UTC au 24 à 24 UTC
Vent 8 kt de sud-ouest
Visibilité 10 km ou plus
Quelques nuages à une hauteur de 3000 ft

TAF: NCRG 232300Z 2400/2424 23008KT 9999 FEW030

Observations et prévisions météorologiques de plus de 4000 aéroports (messages METAR et TAF).

Les stations disponibles sont représentées par des disques jaunes et rouges sur la carte.

Passer la souris dessus pour voir le nom de la station.

Cliquer dessus pour voir les observations et prévisions météorologiques.

Pour changer de carte: cliquez sur les boutons verts avec une croix noire pour zoomer, sur le bouton vert avec un tiret pour effectuer un zoom arrière, ou sur les flèches vertes pour les cartes adjacentes.


METAR-TAF: